sensor_id;sensor_type;location;lat;lon;timestamp;P1;durP1;ratioP1;P2;durP2;ratioP2
67156;SDS011;54086;50.126;8.710;2023-05-02T00:00:36;7.57;;;3.60;;
67156;SDS011;54086;50.126;8.710;2023-05-02T00:03:03;8.32;;;4.22;;
67156;SDS011;54086;50.126;8.710;2023-05-02T00:05:29;9.10;;;4.23;;
67156;SDS011;54086;50.126;8.710;2023-05-02T00:07:56;8.02;;;3.97;;
67156;SDS011;54086;50.126;8.710;2023-05-02T00:10:21;7.88;;;4.10;;
67156;SDS011;54086;50.126;8.710;2023-05-02T00:12:49;7.83;;;4.07;;
67156;SDS011;54086;50.126;8.710;2023-05-02T00:15:15;8.02;;;3.97;;
67156;SDS011;54086;50.126;8.710;2023-05-02T00:17:40;8.53;;;4.03;;
67156;SDS011;54086;50.126;8.710;2023-05-02T00:20:07;9.00;;;4.60;;
67156;SDS011;54086;50.126;8.710;2023-05-02T00:22:34;8.95;;;4.30;;
67156;SDS011;54086;50.126;8.710;2023-05-02T00:25:00;7.75;;;4.13;;
67156;SDS011;54086;50.126;8.710;2023-05-02T00:27:26;9.23;;;4.45;;
67156;SDS011;54086;50.126;8.710;2023-05-02T00:29:54;9.60;;;5.13;;
67156;SDS011;54086;50.126;8.710;2023-05-02T00:32:20;8.32;;;4.40;;
67156;SDS011;54086;50.126;8.710;2023-05-02T00:34:45;9.53;;;4.70;;
67156;SDS011;54086;50.126;8.710;2023-05-02T00:37:11;9.13;;;4.30;;
67156;SDS011;54086;50.126;8.710;2023-05-02T00:39:37;10.75;;;5.20;;
67156;SDS011;54086;50.126;8.710;2023-05-02T00:42:02;8.80;;;4.83;;
67156;SDS011;54086;50.126;8.710;2023-05-02T00:44:28;8.52;;;4.80;;
67156;SDS011;54086;50.126;8.710;2023-05-02T00:46:55;8.07;;;4.33;;
67156;SDS011;54086;50.126;8.710;2023-05-02T00:49:21;10.27;;;4.72;;
67156;SDS011;54086;50.126;8.710;2023-05-02T00:51:47;10.47;;;5.80;;
67156;SDS011;54086;50.126;8.710;2023-05-02T00:54:13;9.63;;;5.27;;
67156;SDS011;54086;50.126;8.710;2023-05-02T00:56:39;10.48;;;5.00;;
67156;SDS011;54086;50.126;8.710;2023-05-02T00:59:04;12.37;;;5.77;;
67156;SDS011;54086;50.126;8.710;2023-05-02T01:01:46;8.93;;;4.78;;
67156;SDS011;54086;50.126;8.710;2023-05-02T01:15:42;10.75;;;5.80;;
67156;SDS011;54086;50.126;8.710;2023-05-02T01:18:10;10.98;;;6.43;;
67156;SDS011;54086;50.126;8.710;2023-05-02T01:20:38;11.67;;;6.63;;
67156;SDS011;54086;50.126;8.710;2023-05-02T01:23:15;11.35;;;6.47;;
67156;SDS011;54086;50.126;8.710;2023-05-02T01:25:48;11.43;;;6.10;;
67156;SDS011;54086;50.126;8.710;2023-05-02T01:28:28;12.25;;;6.95;;
67156;SDS011;54086;50.126;8.710;2023-05-02T01:31:02;12.75;;;6.85;;
67156;SDS011;54086;50.126;8.710;2023-05-02T01:33:30;11.47;;;7.10;;
67156;SDS011;54086;50.126;8.710;2023-05-02T01:35:56;12.77;;;7.00;;
67156;SDS011;54086;50.126;8.710;2023-05-02T01:38:25;12.32;;;6.72;;
67156;SDS011;54086;50.126;8.710;2023-05-02T01:40:52;11.05;;;6.88;;
67156;SDS011;54086;50.126;8.710;2023-05-02T01:43:21;12.05;;;7.32;;
67156;SDS011;54086;50.126;8.710;2023-05-02T01:45:47;11.25;;;6.90;;
67156;SDS011;54086;50.126;8.710;2023-05-02T01:48:15;11.82;;;7.43;;
67156;SDS011;54086;50.126;8.710;2023-05-02T01:50:43;11.40;;;7.10;;
67156;SDS011;54086;50.126;8.710;2023-05-02T01:53:10;13.43;;;6.78;;
67156;SDS011;54086;50.126;8.710;2023-05-02T01:55:38;12.32;;;6.72;;
67156;SDS011;54086;50.126;8.710;2023-05-02T01:58:08;12.63;;;6.90;;
67156;SDS011;54086;50.126;8.710;2023-05-02T02:00:35;12.15;;;7.15;;
67156;SDS011;54086;50.126;8.710;2023-05-02T02:03:04;13.45;;;7.40;;
67156;SDS011;54086;50.126;8.710;2023-05-02T02:05:31;14.07;;;7.85;;
67156;SDS011;54086;50.126;8.710;2023-05-02T02:07:59;12.95;;;7.47;;
67156;SDS011;54086;50.126;8.710;2023-05-02T02:10:25;13.83;;;8.20;;
67156;SDS011;54086;50.126;8.710;2023-05-02T02:13:00;15.30;;;7.72;;
67156;SDS011;54086;50.126;8.710;2023-05-02T02:15:33;13.75;;;8.27;;
67156;SDS011;54086;50.126;8.710;2023-05-02T02:18:01;15.00;;;9.07;;
67156;SDS011;54086;50.126;8.710;2023-05-02T02:20:34;13.60;;;8.80;;
67156;SDS011;54086;50.126;8.710;2023-05-02T02:23:07;15.67;;;9.07;;
67156;SDS011;54086;50.126;8.710;2023-05-02T02:25:38;15.15;;;9.52;;
67156;SDS011;54086;50.126;8.710;2023-05-02T02:28:05;16.15;;;9.80;;
67156;SDS011;54086;50.126;8.710;2023-05-02T02:30:38;16.80;;;9.27;;
67156;SDS011;54086;50.126;8.710;2023-05-02T02:33:03;17.90;;;10.75;;
67156;SDS011;54086;50.126;8.710;2023-05-02T02:35:33;20.33;;;11.03;;
67156;SDS011;54086;50.126;8.710;2023-05-02T02:38:13;19.33;;;12.23;;
67156;SDS011;54086;50.126;8.710;2023-05-02T02:40:58;20.10;;;12.33;;
67156;SDS011;54086;50.126;8.710;2023-05-02T02:49:37;18.73;;;11.07;;
67156;SDS011;54086;50.126;8.710;2023-05-02T02:51:45;22.25;;;11.90;;
67156;SDS011;54086;50.126;8.710;2023-05-02T02:57:35;19.65;;;11.60;;
67156;SDS011;54086;50.126;8.710;2023-05-02T03:00:10;19.95;;;12.45;;
67156;SDS011;54086;50.126;8.710;2023-05-02T03:02:40;20.33;;;11.70;;
67156;SDS011;54086;50.126;8.710;2023-05-02T03:05:07;20.15;;;12.38;;
67156;SDS011;54086;50.126;8.710;2023-05-02T03:07:34;20.60;;;12.27;;
67156;SDS011;54086;50.126;8.710;2023-05-02T03:10:05;19.63;;;12.10;;
67156;SDS011;54086;50.126;8.710;2023-05-02T03:12:31;22.48;;;13.05;;
67156;SDS011;54086;50.126;8.710;2023-05-02T03:15:02;21.55;;;12.40;;
67156;SDS011;54086;50.126;8.710;2023-05-02T03:17:30;23.30;;;13.15;;
67156;SDS011;54086;50.126;8.710;2023-05-02T03:19:59;22.57;;;13.40;;
67156;SDS011;54086;50.126;8.710;2023-05-02T03:22:24;20.50;;;12.70;;
67156;SDS011;54086;50.126;8.710;2023-05-02T03:24:49;20.97;;;11.77;;
67156;SDS011;54086;50.126;8.710;2023-05-02T03:27:18;19.47;;;11.40;;
67156;SDS011;54086;50.126;8.710;2023-05-02T03:29:43;20.75;;;11.40;;
67156;SDS011;54086;50.126;8.710;2023-05-02T03:32:09;20.27;;;11.57;;
67156;SDS011;54086;50.126;8.710;2023-05-02T03:34:34;20.87;;;12.13;;
67156;SDS011;54086;50.126;8.710;2023-05-02T03:36:59;20.38;;;11.95;;
67156;SDS011;54086;50.126;8.710;2023-05-02T03:39:25;20.30;;;11.83;;
67156;SDS011;54086;50.126;8.710;2023-05-02T03:41:50;20.20;;;12.43;;
67156;SDS011;54086;50.126;8.710;2023-05-02T03:44:16;22.45;;;13.55;;
67156;SDS011;54086;50.126;8.710;2023-05-02T03:46:44;21.17;;;12.85;;
67156;SDS011;54086;50.126;8.710;2023-05-02T03:49:13;22.77;;;13.47;;
67156;SDS011;54086;50.126;8.710;2023-05-02T03:51:38;23.02;;;14.43;;
67156;SDS011;54086;50.126;8.710;2023-05-02T03:54:04;24.43;;;14.07;;
67156;SDS011;54086;50.126;8.710;2023-05-02T03:56:29;23.65;;;13.57;;
67156;SDS011;54086;50.126;8.710;2023-05-02T03:58:55;20.40;;;12.60;;
67156;SDS011;54086;50.126;8.710;2023-05-02T04:01:21;21.42;;;12.70;;
67156;SDS011;54086;50.126;8.710;2023-05-02T04:03:47;21.00;;;13.00;;
67156;SDS011;54086;50.126;8.710;2023-05-02T04:06:14;20.33;;;12.57;;
67156;SDS011;54086;50.126;8.710;2023-05-02T04:08:40;23.13;;;13.27;;
67156;SDS011;54086;50.126;8.710;2023-05-02T04:11:06;24.50;;;15.00;;
67156;SDS011;54086;50.126;8.710;2023-05-02T04:13:31;20.88;;;12.77;;
67156;SDS011;54086;50.126;8.710;2023-05-02T04:15:57;23.60;;;12.40;;
67156;SDS011;54086;50.126;8.710;2023-05-02T04:18:22;21.40;;;12.53;;
67156;SDS011;54086;50.126;8.710;2023-05-02T04:20:48;19.80;;;12.10;;
67156;SDS011;54086;50.126;8.710;2023-05-02T04:23:14;24.55;;;13.25;;
67156;SDS011;54086;50.126;8.710;2023-05-02T04:25:39;20.97;;;11.90;;
67156;SDS011;54086;50.126;8.710;2023-05-02T04:28:06;19.97;;;12.57;;
67156;SDS011;54086;50.126;8.710;2023-05-02T04:30:32;20.53;;;12.53;;
67156;SDS011;54086;50.126;8.710;2023-05-02T04:32:57;21.83;;;12.75;;
67156;SDS011;54086;50.126;8.710;2023-05-02T04:35:22;19.90;;;12.27;;
67156;SDS011;54086;50.126;8.710;2023-05-02T04:37:48;22.53;;;12.93;;
67156;SDS011;54086;50.126;8.710;2023-05-02T04:40:14;21.20;;;12.52;;
67156;SDS011;54086;50.126;8.710;2023-05-02T04:42:39;20.57;;;12.67;;
67156;SDS011;54086;50.126;8.710;2023-05-02T04:45:05;19.83;;;11.17;;
67156;SDS011;54086;50.126;8.710;2023-05-02T04:47:31;23.42;;;12.50;;
67156;SDS011;54086;50.126;8.710;2023-05-02T04:49:56;20.47;;;12.63;;
67156;SDS011;54086;50.126;8.710;2023-05-02T04:52:21;21.77;;;12.68;;
67156;SDS011;54086;50.126;8.710;2023-05-02T04:54:47;20.87;;;11.83;;
67156;SDS011;54086;50.126;8.710;2023-05-02T04:57:13;21.53;;;13.50;;
67156;SDS011;54086;50.126;8.710;2023-05-02T04:59:38;22.08;;;12.32;;
67156;SDS011;54086;50.126;8.710;2023-05-02T05:02:05;21.35;;;12.82;;
67156;SDS011;54086;50.126;8.710;2023-05-02T05:04:33;20.57;;;12.53;;
67156;SDS011;54086;50.126;8.710;2023-05-02T05:06:58;25.77;;;13.68;;
67156;SDS011;54086;50.126;8.710;2023-05-02T05:09:24;25.60;;;14.87;;
67156;SDS011;54086;50.126;8.710;2023-05-02T05:11:49;28.63;;;15.55;;
67156;SDS011;54086;50.126;8.710;2023-05-02T05:14:15;28.07;;;16.87;;
67156;SDS011;54086;50.126;8.710;2023-05-02T05:16:41;28.10;;;16.40;;
67156;SDS011;54086;50.126;8.710;2023-05-02T05:19:07;27.92;;;16.85;;
67156;SDS011;54086;50.126;8.710;2023-05-02T05:21:33;31.77;;;17.70;;
67156;SDS011;54086;50.126;8.710;2023-05-02T05:23:59;33.63;;;18.88;;
67156;SDS011;54086;50.126;8.710;2023-05-02T05:26:24;37.07;;;19.13;;
67156;SDS011;54086;50.126;8.710;2023-05-02T05:28:50;33.25;;;18.45;;
67156;SDS011;54086;50.126;8.710;2023-05-02T05:31:16;35.00;;;18.73;;
67156;SDS011;54086;50.126;8.710;2023-05-02T05:33:41;35.37;;;18.67;;
67156;SDS011;54086;50.126;8.710;2023-05-02T05:36:12;35.42;;;19.23;;
67156;SDS011;54086;50.126;8.710;2023-05-02T05:38:39;36.47;;;19.95;;
67156;SDS011;54086;50.126;8.710;2023-05-02T05:41:04;33.47;;;19.00;;
67156;SDS011;54086;50.126;8.710;2023-05-02T05:43:30;32.70;;;18.38;;
67156;SDS011;54086;50.126;8.710;2023-05-02T05:45:55;35.93;;;20.07;;
67156;SDS011;54086;50.126;8.710;2023-05-02T05:48:21;38.47;;;20.53;;
67156;SDS011;54086;50.126;8.710;2023-05-02T05:50:47;34.53;;;18.85;;
67156;SDS011;54086;50.126;8.710;2023-05-02T05:53:14;31.73;;;17.73;;
67156;SDS011;54086;50.126;8.710;2023-05-02T05:55:40;35.80;;;19.08;;
67156;SDS011;54086;50.126;8.710;2023-05-02T05:58:07;30.77;;;18.73;;
67156;SDS011;54086;50.126;8.710;2023-05-02T06:00:33;34.17;;;18.20;;
67156;SDS011;54086;50.126;8.710;2023-05-02T06:02:59;34.20;;;19.35;;
67156;SDS011;54086;50.126;8.710;2023-05-02T06:05:25;33.15;;;19.58;;
67156;SDS011;54086;50.126;8.710;2023-05-02T06:07:50;37.20;;;20.40;;
67156;SDS011;54086;50.126;8.710;2023-05-02T06:10:16;34.17;;;18.83;;
67156;SDS011;54086;50.126;8.710;2023-05-02T06:12:41;35.03;;;18.58;;
67156;SDS011;54086;50.126;8.710;2023-05-02T06:15:07;30.37;;;16.87;;
67156;SDS011;54086;50.126;8.710;2023-05-02T06:17:33;33.95;;;17.80;;
67156;SDS011;54086;50.126;8.710;2023-05-02T06:20:00;31.07;;;17.63;;
67156;SDS011;54086;50.126;8.710;2023-05-02T06:22:25;31.83;;;17.38;;
67156;SDS011;54086;50.126;8.710;2023-05-02T06:24:50;32.50;;;17.57;;
67156;SDS011;54086;50.126;8.710;2023-05-02T06:27:16;32.43;;;16.53;;
67156;SDS011;54086;50.126;8.710;2023-05-02T06:29:41;31.40;;;16.70;;
67156;SDS011;54086;50.126;8.710;2023-05-02T06:32:08;30.35;;;17.05;;
67156;SDS011;54086;50.126;8.710;2023-05-02T06:34:34;32.25;;;16.98;;
67156;SDS011;54086;50.126;8.710;2023-05-02T06:36:59;32.20;;;17.27;;
67156;SDS011;54086;50.126;8.710;2023-05-02T06:39:25;29.10;;;15.47;;
67156;SDS011;54086;50.126;8.710;2023-05-02T06:41:50;31.13;;;16.73;;
67156;SDS011;54086;50.126;8.710;2023-05-02T06:44:16;32.83;;;18.43;;
67156;SDS011;54086;50.126;8.710;2023-05-02T06:46:41;31.00;;;17.77;;
67156;SDS011;54086;50.126;8.710;2023-05-02T06:49:07;31.83;;;16.52;;
67156;SDS011;54086;50.126;8.710;2023-05-02T06:51:33;32.17;;;17.83;;
67156;SDS011;54086;50.126;8.710;2023-05-02T06:53:59;31.23;;;16.50;;
67156;SDS011;54086;50.126;8.710;2023-05-02T06:56:24;30.80;;;17.63;;
67156;SDS011;54086;50.126;8.710;2023-05-02T06:58:50;33.13;;;16.97;;
67156;SDS011;54086;50.126;8.710;2023-05-02T07:01:16;29.17;;;16.30;;
67156;SDS011;54086;50.126;8.710;2023-05-02T07:03:45;30.17;;;16.60;;
67156;SDS011;54086;50.126;8.710;2023-05-02T07:06:11;33.05;;;17.55;;
67156;SDS011;54086;50.126;8.710;2023-05-02T07:08:36;29.33;;;15.60;;
67156;SDS011;54086;50.126;8.710;2023-05-02T07:11:03;28.15;;;16.05;;
67156;SDS011;54086;50.126;8.710;2023-05-02T07:13:28;29.50;;;15.73;;
67156;SDS011;54086;50.126;8.710;2023-05-02T07:15:53;28.70;;;14.87;;
67156;SDS011;54086;50.126;8.710;2023-05-02T07:18:19;27.80;;;15.33;;
67156;SDS011;54086;50.126;8.710;2023-05-02T07:20:46;28.85;;;16.15;;
67156;SDS011;54086;50.126;8.710;2023-05-02T07:23:12;30.83;;;15.97;;
67156;SDS011;54086;50.126;8.710;2023-05-02T07:25:37;28.70;;;15.48;;
67156;SDS011;54086;50.126;8.710;2023-05-02T07:28:04;27.30;;;15.03;;
67156;SDS011;54086;50.126;8.710;2023-05-02T07:30:30;28.60;;;14.85;;
67156;SDS011;54086;50.126;8.710;2023-05-02T07:32:55;27.77;;;15.20;;
67156;SDS011;54086;50.126;8.710;2023-05-02T07:35:20;27.08;;;14.23;;
67156;SDS011;54086;50.126;8.710;2023-05-02T07:37:46;26.77;;;14.53;;
67156;SDS011;54086;50.126;8.710;2023-05-02T07:40:11;29.70;;;15.73;;
67156;SDS011;54086;50.126;8.710;2023-05-02T07:42:37;27.15;;;14.55;;
67156;SDS011;54086;50.126;8.710;2023-05-02T07:45:05;26.30;;;13.30;;
67156;SDS011;54086;50.126;8.710;2023-05-02T07:47:31;25.05;;;11.93;;
67156;SDS011;54086;50.126;8.710;2023-05-02T07:49:56;22.17;;;11.63;;
67156;SDS011;54086;50.126;8.710;2023-05-02T07:52:22;26.17;;;12.13;;
67156;SDS011;54086;50.126;8.710;2023-05-02T07:54:49;26.25;;;13.10;;
67156;SDS011;54086;50.126;8.710;2023-05-02T07:57:15;24.77;;;12.03;;
67156;SDS011;54086;50.126;8.710;2023-05-02T07:59:42;28.77;;;13.50;;
67156;SDS011;54086;50.126;8.710;2023-05-02T08:02:07;27.55;;;13.38;;
67156;SDS011;54086;50.126;8.710;2023-05-02T08:04:33;23.93;;;12.10;;
67156;SDS011;54086;50.126;8.710;2023-05-02T08:06:59;25.35;;;13.65;;
67156;SDS011;54086;50.126;8.710;2023-05-02T08:09:25;26.37;;;13.53;;
67156;SDS011;54086;50.126;8.710;2023-05-02T08:11:50;26.43;;;13.13;;
67156;SDS011;54086;50.126;8.710;2023-05-02T08:14:16;25.30;;;12.17;;
67156;SDS011;54086;50.126;8.710;2023-05-02T08:16:43;26.77;;;13.57;;
67156;SDS011;54086;50.126;8.710;2023-05-02T08:19:08;25.60;;;12.20;;
67156;SDS011;54086;50.126;8.710;2023-05-02T08:21:34;24.38;;;12.60;;
67156;SDS011;54086;50.126;8.710;2023-05-02T08:23:59;25.90;;;12.33;;
67156;SDS011;54086;50.126;8.710;2023-05-02T08:26:25;20.95;;;11.15;;
67156;SDS011;54086;50.126;8.710;2023-05-02T08:28:51;25.17;;;12.57;;
67156;SDS011;54086;50.126;8.710;2023-05-02T08:31:17;22.67;;;12.27;;
67156;SDS011;54086;50.126;8.710;2023-05-02T08:33:42;20.63;;;11.53;;
67156;SDS011;54086;50.126;8.710;2023-05-02T08:36:14;21.10;;;10.88;;
67156;SDS011;54086;50.126;8.710;2023-05-02T08:38:40;23.23;;;11.33;;
67156;SDS011;54086;50.126;8.710;2023-05-02T08:41:10;20.75;;;10.57;;
67156;SDS011;54086;50.126;8.710;2023-05-02T08:43:39;22.30;;;11.35;;
67156;SDS011;54086;50.126;8.710;2023-05-02T08:46:05;22.85;;;11.63;;
67156;SDS011;54086;50.126;8.710;2023-05-02T08:48:34;26.80;;;13.10;;
67156;SDS011;54086;50.126;8.710;2023-05-02T08:51:12;29.00;;;12.83;;
67156;SDS011;54086;50.126;8.710;2023-05-02T08:53:39;24.80;;;13.50;;
67156;SDS011;54086;50.126;8.710;2023-05-02T08:56:05;24.10;;;13.18;;
67156;SDS011;54086;50.126;8.710;2023-05-02T08:58:32;24.08;;;11.85;;
67156;SDS011;54086;50.126;8.710;2023-05-02T09:00:59;27.67;;;13.83;;
67156;SDS011;54086;50.126;8.710;2023-05-02T09:03:32;25.60;;;10.82;;
67156;SDS011;54086;50.126;8.710;2023-05-02T09:08:36;26.48;;;11.93;;
67156;SDS011;54086;50.126;8.710;2023-05-02T09:11:04;23.13;;;11.23;;
67156;SDS011;54086;50.126;8.710;2023-05-02T09:13:38;23.93;;;11.53;;
67156;SDS011;54086;50.126;8.710;2023-05-02T09:16:06;22.52;;;11.13;;
67156;SDS011;54086;50.126;8.710;2023-05-02T09:18:38;25.42;;;11.82;;
67156;SDS011;54086;50.126;8.710;2023-05-02T09:21:15;23.85;;;11.73;;
67156;SDS011;54086;50.126;8.710;2023-05-02T09:23:46;25.67;;;11.23;;
67156;SDS011;54086;50.126;8.710;2023-05-02T09:26:19;22.60;;;11.03;;
67156;SDS011;54086;50.126;8.710;2023-05-02T09:31:22;25.25;;;11.43;;
67156;SDS011;54086;50.126;8.710;2023-05-02T09:34:06;28.55;;;12.65;;
67156;SDS011;54086;50.126;8.710;2023-05-02T09:36:45;20.52;;;9.32;;
67156;SDS011;54086;50.126;8.710;2023-05-02T09:39:15;21.47;;;10.37;;
67156;SDS011;54086;50.126;8.710;2023-05-02T09:41:42;21.00;;;9.98;;
67156;SDS011;54086;50.126;8.710;2023-05-02T09:44:11;20.77;;;10.48;;
67156;SDS011;54086;50.126;8.710;2023-05-02T09:46:38;18.30;;;8.70;;
67156;SDS011;54086;50.126;8.710;2023-05-02T09:49:05;17.33;;;8.20;;
67156;SDS011;54086;50.126;8.710;2023-05-02T09:51:31;20.90;;;7.90;;
67156;SDS011;54086;50.126;8.710;2023-05-02T09:53:56;17.60;;;7.50;;
67156;SDS011;54086;50.126;8.710;2023-05-02T09:56:22;15.47;;;8.33;;
67156;SDS011;54086;50.126;8.710;2023-05-02T09:58:47;17.00;;;8.40;;
67156;SDS011;54086;50.126;8.710;2023-05-02T10:01:13;17.80;;;8.17;;
67156;SDS011;54086;50.126;8.710;2023-05-02T10:03:40;17.00;;;8.73;;
67156;SDS011;54086;50.126;8.710;2023-05-02T10:06:07;19.67;;;8.68;;
67156;SDS011;54086;50.126;8.710;2023-05-02T10:08:33;15.97;;;8.57;;
67156;SDS011;54086;50.126;8.710;2023-05-02T10:10:59;16.35;;;8.18;;
67156;SDS011;54086;50.126;8.710;2023-05-02T10:13:27;16.60;;;8.75;;
67156;SDS011;54086;50.126;8.710;2023-05-02T10:18:26;15.55;;;7.53;;
67156;SDS011;54086;50.126;8.710;2023-05-02T10:21:00;13.97;;;7.17;;
67156;SDS011;54086;50.126;8.710;2023-05-02T10:23:32;16.10;;;7.50;;
67156;SDS011;54086;50.126;8.710;2023-05-02T10:25:58;15.27;;;6.75;;
67156;SDS011;54086;50.126;8.710;2023-05-02T10:28:25;16.13;;;7.90;;
67156;SDS011;54086;50.126;8.710;2023-05-02T10:30:51;17.55;;;9.23;;
67156;SDS011;54086;50.126;8.710;2023-05-02T10:33:17;17.17;;;7.57;;
67156;SDS011;54086;50.126;8.710;2023-05-02T10:35:45;15.77;;;8.45;;
67156;SDS011;54086;50.126;8.710;2023-05-02T10:38:12;15.52;;;7.18;;
67156;SDS011;54086;50.126;8.710;2023-05-02T10:40:40;15.70;;;7.40;;
67156;SDS011;54086;50.126;8.710;2023-05-02T10:43:12;16.23;;;6.82;;
67156;SDS011;54086;50.126;8.710;2023-05-02T10:45:40;14.98;;;7.07;;
67156;SDS011;54086;50.126;8.710;2023-05-02T10:48:13;15.93;;;7.70;;
67156;SDS011;54086;50.126;8.710;2023-05-02T10:50:45;17.00;;;6.10;;
67156;SDS011;54086;50.126;8.710;2023-05-02T10:53:32;12.13;;;6.00;;
67156;SDS011;54086;50.126;8.710;2023-05-02T10:56:07;14.52;;;6.15;;
67156;SDS011;54086;50.126;8.710;2023-05-02T10:58:32;11.48;;;5.88;;
67156;SDS011;54086;50.126;8.710;2023-05-02T11:01:58;12.97;;;6.10;;
67156;SDS011;54086;50.126;8.710;2023-05-02T11:03:53;11.25;;;5.68;;
67156;SDS011;54086;50.126;8.710;2023-05-02T11:06:26;12.50;;;6.18;;
67156;SDS011;54086;50.126;8.710;2023-05-02T11:11:44;10.65;;;4.70;;
67156;SDS011;54086;50.126;8.710;2023-05-02T11:14:11;11.13;;;5.40;;
67156;SDS011;54086;50.126;8.710;2023-05-02T11:19:25;10.98;;;4.50;;
67156;SDS011;54086;50.126;8.710;2023-05-02T11:24:47;10.38;;;4.60;;
67156;SDS011;54086;50.126;8.710;2023-05-02T11:29:56;7.00;;;2.97;;
67156;SDS011;54086;50.126;8.710;2023-05-02T11:32:24;6.75;;;2.65;;
67156;SDS011;54086;50.126;8.710;2023-05-02T11:35:17;7.72;;;3.08;;
67156;SDS011;54086;50.126;8.710;2023-05-02T11:37:53;7.63;;;2.58;;
67156;SDS011;54086;50.126;8.710;2023-05-02T11:40:18;7.40;;;2.57;;
67156;SDS011;54086;50.126;8.710;2023-05-02T11:42:44;7.00;;;2.78;;
67156;SDS011;54086;50.126;8.710;2023-05-02T11:45:10;7.97;;;3.20;;
67156;SDS011;54086;50.126;8.710;2023-05-02T11:47:37;9.03;;;3.20;;
67156;SDS011;54086;50.126;8.710;2023-05-02T11:50:05;7.03;;;2.72;;
67156;SDS011;54086;50.126;8.710;2023-05-02T11:52:40;7.43;;;3.00;;
67156;SDS011;54086;50.126;8.710;2023-05-02T11:55:07;7.70;;;3.17;;
67156;SDS011;54086;50.126;8.710;2023-05-02T11:57:36;6.67;;;2.70;;
67156;SDS011;54086;50.126;8.710;2023-05-02T12:00:02;7.15;;;2.70;;
67156;SDS011;54086;50.126;8.710;2023-05-02T12:05:02;7.35;;;3.30;;
67156;SDS011;54086;50.126;8.710;2023-05-02T12:07:40;7.80;;;3.35;;
67156;SDS011;54086;50.126;8.710;2023-05-02T12:10:09;6.50;;;2.60;;
67156;SDS011;54086;50.126;8.710;2023-05-02T12:12:38;8.75;;;3.20;;
67156;SDS011;54086;50.126;8.710;2023-05-02T12:15:05;6.95;;;2.83;;
67156;SDS011;54086;50.126;8.710;2023-05-02T12:17:38;8.18;;;2.85;;
67156;SDS011;54086;50.126;8.710;2023-05-02T12:20:10;7.90;;;3.40;;
67156;SDS011;54086;50.126;8.710;2023-05-02T12:22:36;7.10;;;3.07;;
67156;SDS011;54086;50.126;8.710;2023-05-02T12:25:03;10.63;;;3.15;;
67156;SDS011;54086;50.126;8.710;2023-05-02T12:27:29;8.13;;;2.80;;
67156;SDS011;54086;50.126;8.710;2023-05-02T12:29:57;8.02;;;2.83;;
67156;SDS011;54086;50.126;8.710;2023-05-02T12:32:27;8.70;;;3.37;;
67156;SDS011;54086;50.126;8.710;2023-05-02T12:34:54;8.13;;;3.20;;
67156;SDS011;54086;50.126;8.710;2023-05-02T12:37:23;10.02;;;4.10;;
67156;SDS011;54086;50.126;8.710;2023-05-02T12:39:49;7.63;;;3.07;;
67156;SDS011;54086;50.126;8.710;2023-05-02T12:42:17;8.23;;;3.28;;
67156;SDS011;54086;50.126;8.710;2023-05-02T12:44:44;9.20;;;3.10;;
67156;SDS011;54086;50.126;8.710;2023-05-02T12:47:12;6.80;;;2.90;;
67156;SDS011;54086;50.126;8.710;2023-05-02T12:55:21;7.75;;;3.72;;
67156;SDS011;54086;50.126;8.710;2023-05-02T12:57:48;7.40;;;3.33;;
67156;SDS011;54086;50.126;8.710;2023-05-02T13:00:17;8.25;;;3.40;;
67156;SDS011;54086;50.126;8.710;2023-05-02T13:02:43;7.13;;;3.00;;
67156;SDS011;54086;50.126;8.710;2023-05-02T13:05:17;10.87;;;3.60;;
67156;SDS011;54086;50.126;8.710;2023-05-02T13:07:44;10.68;;;3.72;;
67156;SDS011;54086;50.126;8.710;2023-05-02T13:10:10;7.65;;;3.35;;
67156;SDS011;54086;50.126;8.710;2023-05-02T13:12:37;7.77;;;3.50;;
67156;SDS011;54086;50.126;8.710;2023-05-02T13:15:03;9.32;;;4.07;;
67156;SDS011;54086;50.126;8.710;2023-05-02T13:17:30;7.18;;;3.53;;
67156;SDS011;54086;50.126;8.710;2023-05-02T13:19:56;7.67;;;3.40;;
67156;SDS011;54086;50.126;8.710;2023-05-02T13:22:22;8.82;;;3.70;;
67156;SDS011;54086;50.126;8.710;2023-05-02T13:24:48;8.13;;;3.80;;
67156;SDS011;54086;50.126;8.710;2023-05-02T13:27:13;9.57;;;3.87;;
67156;SDS011;54086;50.126;8.710;2023-05-02T13:29:39;7.97;;;3.30;;
67156;SDS011;54086;50.126;8.710;2023-05-02T13:32:04;10.23;;;3.85;;
67156;SDS011;54086;50.126;8.710;2023-05-02T13:34:30;9.60;;;3.90;;
67156;SDS011;54086;50.126;8.710;2023-05-02T13:36:55;8.77;;;3.40;;
67156;SDS011;54086;50.126;8.710;2023-05-02T13:39:21;8.20;;;3.67;;
67156;SDS011;54086;50.126;8.710;2023-05-02T13:41:47;9.53;;;3.63;;
67156;SDS011;54086;50.126;8.710;2023-05-02T13:44:13;8.55;;;3.97;;
67156;SDS011;54086;50.126;8.710;2023-05-02T13:46:39;8.40;;;3.77;;
67156;SDS011;54086;50.126;8.710;2023-05-02T13:49:05;8.27;;;3.83;;
67156;SDS011;54086;50.126;8.710;2023-05-02T13:51:30;9.00;;;3.77;;
67156;SDS011;54086;50.126;8.710;2023-05-02T13:53:57;7.70;;;3.47;;
67156;SDS011;54086;50.126;8.710;2023-05-02T13:56:23;7.45;;;3.58;;
67156;SDS011;54086;50.126;8.710;2023-05-02T13:58:48;8.23;;;3.33;;
67156;SDS011;54086;50.126;8.710;2023-05-02T14:01:13;7.10;;;3.47;;
67156;SDS011;54086;50.126;8.710;2023-05-02T14:03:39;6.87;;;3.20;;
67156;SDS011;54086;50.126;8.710;2023-05-02T14:06:04;8.05;;;3.88;;
67156;SDS011;54086;50.126;8.710;2023-05-02T14:08:30;7.67;;;3.67;;
67156;SDS011;54086;50.126;8.710;2023-05-02T14:10:56;9.15;;;3.80;;
67156;SDS011;54086;50.126;8.710;2023-05-02T14:13:21;7.50;;;3.53;;
67156;SDS011;54086;50.126;8.710;2023-05-02T14:15:48;7.95;;;3.90;;
67156;SDS011;54086;50.126;8.710;2023-05-02T14:18:14;7.87;;;3.83;;
67156;SDS011;54086;50.126;8.710;2023-05-02T14:20:40;8.00;;;4.03;;
67156;SDS011;54086;50.126;8.710;2023-05-02T14:23:06;9.60;;;3.60;;
67156;SDS011;54086;50.126;8.710;2023-05-02T14:25:32;9.13;;;3.77;;
67156;SDS011;54086;50.126;8.710;2023-05-02T14:27:59;8.65;;;3.78;;
67156;SDS011;54086;50.126;8.710;2023-05-02T14:30:27;8.38;;;3.58;;
67156;SDS011;54086;50.126;8.710;2023-05-02T14:32:52;9.37;;;3.50;;
67156;SDS011;54086;50.126;8.710;2023-05-02T14:35:18;9.13;;;3.30;;
67156;SDS011;54086;50.126;8.710;2023-05-02T14:37:43;9.23;;;3.77;;
67156;SDS011;54086;50.126;8.710;2023-05-02T14:40:09;9.40;;;3.65;;
67156;SDS011;54086;50.126;8.710;2023-05-02T14:42:36;11.35;;;4.40;;
67156;SDS011;54086;50.126;8.710;2023-05-02T14:45:01;10.03;;;4.20;;
67156;SDS011;54086;50.126;8.710;2023-05-02T14:47:27;10.57;;;4.27;;
67156;SDS011;54086;50.126;8.710;2023-05-02T14:49:56;10.63;;;4.38;;
67156;SDS011;54086;50.126;8.710;2023-05-02T14:52:22;10.20;;;4.23;;
67156;SDS011;54086;50.126;8.710;2023-05-02T14:54:47;8.97;;;4.33;;
67156;SDS011;54086;50.126;8.710;2023-05-02T14:57:14;11.18;;;4.07;;
67156;SDS011;54086;50.126;8.710;2023-05-02T14:59:39;9.30;;;4.07;;
67156;SDS011;54086;50.126;8.710;2023-05-02T15:02:05;9.07;;;4.28;;
67156;SDS011;54086;50.126;8.710;2023-05-02T15:04:32;9.07;;;3.85;;
67156;SDS011;54086;50.126;8.710;2023-05-02T15:07:01;9.97;;;4.60;;
67156;SDS011;54086;50.126;8.710;2023-05-02T15:09:28;10.20;;;4.70;;
67156;SDS011;54086;50.126;8.710;2023-05-02T15:11:53;10.33;;;4.87;;
67156;SDS011;54086;50.126;8.710;2023-05-02T15:14:19;10.23;;;4.95;;
67156;SDS011;54086;50.126;8.710;2023-05-02T15:16:45;10.82;;;5.93;;
67156;SDS011;54086;50.126;8.710;2023-05-02T15:19:12;9.68;;;5.20;;